Time;durP1;ratioP1;P1;durP2;ratioP2;P2;SDS_P1;SDS_P2;PMS_P1;PMS_P2;Temp;Humidity;BMP_temperature;BMP_pressure;BME280_temperature;BME280_humidity;BME280_pressure;Samples;Min_cycle;Max_cycle;Signal;HPM_P1;HPM_P2
2022/01/18 00:00:09;;;;;;;29.08;13.10;;;6.40;57.60;;;;;;5104108;28;34320;-75
2022/01/18 00:02:38;;;;;;;24.55;13.07;;;6.40;57.50;;;;;;5088401;28;34180;-75
2022/01/18 00:05:06;;;;;;;24.42;13.23;;;6.40;57.50;;;;;;5105510;28;34230;-75
2022/01/18 00:07:32;;;;;;;22.00;12.18;;;6.40;57.50;;;;;;5104846;28;34398;-75
2022/01/18 00:09:58;;;;;;;24.45;12.40;;;6.40;57.50;;;;;;5103980;28;35672;-75
2022/01/18 00:12:43;;;;;;;21.65;12.52;;;6.40;57.50;;;;;;5105066;28;34215;-75
2022/01/18 00:18:05;;;;;;;24.60;12.07;;;6.30;57.50;;;;;;5125735;27;34393;-75
2022/01/18 00:20:51;;;;;;;24.90;12.70;;;6.30;57.60;;;;;;5093981;27;34424;-75
2022/01/18 00:23:18;;;;;;;20.38;12.43;;;6.30;57.60;;;;;;5095031;27;34379;-75
2022/01/18 00:25:48;;;;;;;22.25;12.73;;;6.30;57.60;;;;;;5126629;27;34340;-75
2022/01/18 00:28:15;;;;;;;23.73;11.95;;;6.30;57.60;;;;;;5108098;27;34313;-75
2022/01/18 00:33:41;;;;;;;27.85;12.73;;;6.30;57.60;;;;;;5110064;27;34032;-75
2022/01/18 00:36:21;;;;;;;24.50;13.23;;;6.30;57.70;;;;;;5107592;27;34131;-75
2022/01/18 00:38:48;;;;;;;22.20;11.20;;;6.30;57.70;;;;;;5125980;27;34506;-75
2022/01/18 00:41:16;;;;;;;24.45;12.43;;;6.30;57.70;;;;;;5107178;27;35636;-75
2022/01/18 00:43:43;;;;;;;23.10;12.57;;;6.30;57.70;;;;;;5125629;27;34192;-75
2022/01/18 00:46:12;;;;;;;21.30;11.48;;;6.30;57.70;;;;;;5108234;27;34177;-75
2022/01/18 00:48:39;;;;;;;25.80;13.13;;;6.30;57.70;;;;;;5108130;27;33771;-75
2022/01/18 00:51:09;;;;;;;21.73;11.68;;;6.30;57.70;;;;;;5107233;27;35732;-75
2022/01/18 00:53:36;;;;;;;22.17;12.25;;;6.20;57.60;;;;;;5092299;27;34112;-75
2022/01/18 00:56:17;;;;;;;21.88;10.95;;;6.30;57.70;;;;;;5090373;27;34087;-75
2022/01/18 00:58:47;;;;;;;21.27;11.60;;;6.20;58.30;;;;;;5106392;27;34109;-75
2022/01/18 01:01:15;;;;;;;23.08;11.95;;;6.20;57.60;;;;;;5106736;27;36387;-75
2022/01/18 01:03:41;;;;;;;20.13;11.65;;;6.20;57.60;;;;;;5107456;27;34092;-75
2022/01/18 01:06:08;;;;;;;20.15;10.55;;;6.20;57.70;;;;;;5107646;27;34484;-75
2022/01/18 01:08:35;;;;;;;21.20;12.13;;;6.20;57.60;;;;;;5126315;27;34252;-75
2022/01/18 01:11:04;;;;;;;21.05;10.55;;;6.20;57.70;;;;;;5125067;27;34414;-75
2022/01/18 01:13:31;;;;;;;20.88;11.15;;;6.20;57.70;;;;;;5107036;27;34159;-75
2022/01/18 01:35:14;;;;;;;22.25;11.25;;;6.20;57.80;;;;;;5108551;27;34114;-76
2022/01/18 01:45:35;;;;;;;20.67;11.10;;;6.20;57.80;;;;;;5124925;27;34284;-75
2022/01/18 01:48:03;;;;;;;22.45;11.48;;;6.10;58.40;;;;;;5073224;27;34394;-75
2022/01/18 01:50:44;;;;;;;19.08;11.43;;;6.20;57.80;;;;;;5072982;27;34238;-75
2022/01/18 01:53:11;;;;;;;19.55;10.88;;;6.10;57.80;;;;;;5106647;27;36388;-75
2022/01/18 01:55:38;;;;;;;23.40;12.10;;;6.10;57.80;;;;;;5106697;27;34183;-75
2022/01/18 01:58:04;;;;;;;16.90;11.25;;;6.20;57.80;;;;;;5123970;27;34698;-75
2022/01/18 02:00:30;;;;;;;19.67;11.45;;;6.20;57.80;;;;;;5106629;27;34553;-75
2022/01/18 02:02:56;;;;;;;21.95;12.02;;;6.10;57.90;;;;;;5106142;27;36580;-75
2022/01/18 02:05:23;;;;;;;18.58;11.35;;;6.10;57.90;;;;;;5106627;27;34229;-75
2022/01/18 02:07:50;;;;;;;17.20;11.23;;;6.10;57.80;;;;;;5106340;27;34411;-75
2022/01/18 02:10:17;;;;;;;17.67;10.93;;;6.10;57.90;;;;;;5088806;27;34235;-75
2022/01/18 02:12:43;;;;;;;18.83;10.65;;;6.10;57.80;;;;;;5105132;27;36316;-75
2022/01/18 02:15:14;;;;;;;20.02;11.13;;;6.10;57.90;;;;;;5097727;28;34064;-75
2022/01/18 02:23:13;;;;;;;20.30;10.90;;;6.10;58.00;;;;;;5082658;28;34646;-75
2022/01/18 02:25:39;;;;;;;22.80;11.38;;;6.10;58.00;;;;;;5082552;28;34286;-75
2022/01/18 02:28:05;;;;;;;19.15;11.65;;;6.10;58.00;;;;;;5065467;28;34226;-75
2022/01/18 02:30:31;;;;;;;17.23;9.82;;;6.10;58.00;;;;;;5083933;28;34387;-75
2022/01/18 02:32:57;;;;;;;20.13;10.73;;;6.10;58.00;;;;;;5082118;28;35660;-75
2022/01/18 02:35:23;;;;;;;20.13;10.18;;;6.10;57.90;;;;;;5083719;28;34199;-75
2022/01/18 02:37:53;;;;;;;21.73;10.55;;;6.10;58.00;;;;;;5081551;28;34346;-75
2022/01/18 02:40:20;;;;;;;17.70;9.50;;;6.10;57.90;;;;;;5081734;28;34535;-76
2022/01/18 02:42:58;;;;;;;18.70;10.10;;;6.10;57.90;;;;;;5081457;28;36364;-75
2022/01/18 02:45:24;;;;;;;19.48;10.38;;;6.10;58.00;;;;;;5082277;28;34206;-75
2022/01/18 02:47:51;;;;;;;20.73;11.00;;;6.10;58.00;;;;;;5082911;28;34056;-75
2022/01/18 02:50:18;;;;;;;18.60;10.93;;;6.10;58.00;;;;;;5082344;28;34396;-75
2022/01/18 02:52:44;;;;;;;19.48;11.18;;;6.10;58.00;;;;;;5082825;28;34301;-75
2022/01/18 02:55:11;;;;;;;21.08;10.18;;;6.10;58.00;;;;;;5082482;28;34214;-75
2022/01/18 02:57:52;;;;;;;19.05;10.40;;;6.10;58.00;;;;;;5082560;28;34349;-75
2022/01/18 03:00:26;;;;;;;21.98;10.23;;;6.10;58.00;;;;;;5081974;28;34224;-75
2022/01/18 03:05:34;;;;;;;19.00;10.25;;;6.10;58.10;;;;;;5082799;28;34199;-75
2022/01/18 03:08:00;;;;;;;19.33;10.68;;;6.10;58.10;;;;;;5083100;28;34113;-75
2022/01/18 03:10:26;;;;;;;19.63;10.38;;;6.10;58.00;;;;;;5082081;28;34278;-75
2022/01/18 03:12:52;;;;;;;20.83;11.10;;;6.00;57.90;;;;;;5064805;28;35071;-76
2022/01/18 03:15:18;;;;;;;20.42;10.57;;;6.10;58.10;;;;;;5081572;28;34440;-75
2022/01/18 03:17:44;;;;;;;21.60;10.82;;;6.10;58.10;;;;;;5081764;28;34682;-75
2022/01/18 03:20:13;;;;;;;18.95;10.73;;;6.00;58.00;;;;;;5081686;28;34214;-75
2022/01/18 03:22:40;;;;;;;21.05;10.38;;;6.00;58.00;;;;;;5082609;28;36001;-75
2022/01/18 03:30:29;;;;;;;18.85;9.85;;;6.00;58.00;;;;;;5086498;28;34328;-75
2022/01/18 03:32:55;;;;;;;18.20;9.82;;;6.00;58.00;;;;;;5051471;28;35786;-75
2022/01/18 03:35:23;;;;;;;17.88;10.07;;;6.00;58.00;;;;;;5086131;28;34394;-75
2022/01/18 03:37:49;;;;;;;17.77;10.07;;;6.00;58.00;;;;;;5068346;28;34358;-75
2022/01/18 03:40:16;;;;;;;22.60;10.48;;;6.00;58.10;;;;;;5068577;28;34097;-76
2022/01/18 03:42:45;;;;;;;18.98;10.55;;;6.00;58.00;;;;;;5084871;28;36370;-75
2022/01/18 03:45:16;;;;;;;19.77;10.70;;;6.00;58.10;;;;;;5085099;28;34373;-75
2022/01/18 03:47:44;;;;;;;21.77;11.02;;;6.00;58.10;;;;;;5086089;28;34026;-75
2022/01/18 03:50:12;;;;;;;18.85;10.63;;;6.00;58.20;;;;;;5085108;28;34181;-75
2022/01/18 03:52:38;;;;;;;20.85;10.05;;;6.00;58.20;;;;;;5084380;28;35761;-75
2022/01/18 03:55:06;;;;;;;15.43;9.38;;;6.00;58.10;;;;;;5084576;28;34159;-75
2022/01/18 03:57:32;;;;;;;17.88;9.70;;;6.00;58.20;;;;;;5085605;28;34235;-75
2022/01/18 03:59:58;;;;;;;17.02;9.95;;;6.00;58.90;;;;;;5084395;28;34226;-75
2022/01/18 04:02:25;;;;;;;18.83;10.77;;;6.00;58.20;;;;;;5084424;28;36027;-76
2022/01/18 04:04:51;;;;;;;18.75;10.40;;;6.00;58.20;;;;;;5085649;28;34341;-75
2022/01/18 04:07:17;;;;;;;17.33;9.43;;;6.00;58.20;;;;;;5085645;28;34234;-75
2022/01/18 04:09:44;;;;;;;18.23;10.18;;;6.00;58.20;;;;;;5084636;28;34135;-75
2022/01/18 04:12:10;;;;;;;16.80;9.85;;;5.90;58.20;;;;;;5067753;28;35945;-75
2022/01/18 04:14:36;;;;;;;18.98;10.73;;;5.90;58.20;;;;;;5084590;28;34081;-75
2022/01/18 04:17:11;;;;;;;17.83;10.60;;;5.90;58.20;;;;;;5083777;28;34155;-75
2022/01/18 04:27:50;;;;;;;16.42;9.48;;;5.90;58.30;;;;;;5085164;28;33985;-76
2022/01/18 04:30:16;;;;;;;21.15;10.07;;;5.90;58.30;;;;;;5068768;28;34279;-76
2022/01/18 04:32:42;;;;;;;22.50;9.98;;;5.90;58.30;;;;;;5066977;28;34499;-76
2022/01/18 04:35:09;;;;;;;18.15;10.27;;;5.90;58.40;;;;;;5082537;28;34405;-75
2022/01/18 04:37:35;;;;;;;20.35;10.25;;;5.90;58.30;;;;;;5084701;28;34158;-75
2022/01/18 04:40:07;;;;;;;18.73;10.90;;;5.90;58.30;;;;;;5085141;28;34190;-75
2022/01/18 04:42:58;;;;;;;21.42;12.10;;;5.90;58.30;;;;;;5083863;28;36631;-75
2022/01/18 04:50:42;;;;;;;30.35;12.23;;;5.90;58.40;;;;;;5094159;28;34111;-75
2022/01/18 04:53:08;;;;;;;23.77;11.68;;;5.90;58.40;;;;;;5097253;28;34468;-75
2022/01/18 04:55:36;;;;;;;23.13;11.75;;;5.80;58.40;;;;;;5063441;28;34196;-75
2022/01/18 04:58:02;;;;;;;19.65;11.85;;;5.80;58.40;;;;;;5063521;28;34198;-75
2022/01/18 05:00:28;;;;;;;22.02;12.70;;;5.90;58.50;;;;;;5063400;28;34221;-75
2022/01/18 05:02:54;;;;;;;22.55;12.73;;;5.80;58.40;;;;;;5079788;28;36912;-75
2022/01/18 05:05:25;;;;;;;26.80;12.13;;;5.90;58.50;;;;;;5062995;28;34191;-75
2022/01/18 05:07:52;;;;;;;24.20;11.68;;;5.90;58.40;;;;;;5097116;28;34333;-75
2022/01/18 05:10:21;;;;;;;29.20;13.48;;;5.90;58.50;;;;;;5063639;28;34085;-76
2022/01/18 05:12:50;;;;;;;23.13;12.10;;;5.90;58.40;;;;;;5079600;28;35756;-76
2022/01/18 05:23:22;;;;;;;21.70;11.63;;;5.80;58.30;;;;;;5063926;28;34241;-75
2022/01/18 05:25:48;;;;;;;20.90;11.23;;;5.80;58.30;;;;;;5063279;28;34234;-75
2022/01/18 05:28:15;;;;;;;19.33;10.88;;;5.80;58.30;;;;;;5063285;28;34030;-75
2022/01/18 05:30:41;;;;;;;16.23;9.68;;;5.80;58.20;;;;;;5064705;28;34227;-75
2022/01/18 05:33:07;;;;;;;23.63;11.00;;;5.80;58.20;;;;;;5064172;28;34329;-75
2022/01/18 05:35:34;;;;;;;18.98;10.05;;;5.80;58.20;;;;;;5063588;28;34421;-75
2022/01/18 05:38:01;;;;;;;21.98;11.35;;;5.70;58.30;;;;;;5079807;28;34317;-75
2022/01/18 05:40:27;;;;;;;19.83;10.68;;;5.70;58.30;;;;;;5063288;28;34448;-76
2022/01/18 05:42:54;;;;;;;19.63;10.70;;;5.70;58.30;;;;;;5062138;28;35798;-75
2022/01/18 05:45:20;;;;;;;20.35;10.90;;;5.70;58.40;;;;;;5063603;28;34151;-75
2022/01/18 05:47:46;;;;;;;18.35;10.20;;;5.70;58.40;;;;;;5080637;28;34411;-75
2022/01/18 05:50:14;;;;;;;19.08;10.57;;;5.70;58.40;;;;;;5096804;28;34392;-75
2022/01/18 05:52:41;;;;;;;19.50;10.15;;;5.70;58.40;;;;;;5063019;28;34393;-75
2022/01/18 05:55:08;;;;;;;20.80;10.43;;;5.70;58.40;;;;;;5064249;28;34090;-75
2022/01/18 05:57:35;;;;;;;20.65;10.35;;;5.70;58.40;;;;;;5062343;28;34270;-75
2022/01/18 06:00:04;;;;;;;19.33;10.68;;;5.70;58.50;;;;;;5070703;28;34433;-75
2022/01/18 06:02:43;;;;;;;18.30;9.77;;;5.70;58.40;;;;;;5086757;28;36567;-76
2022/01/18 06:07:51;;;;;;;23.27;11.77;;;5.70;58.60;;;;;;5103239;28;34269;-76
2022/01/18 06:10:17;;;;;;;21.00;10.70;;;5.70;58.90;;;;;;5103329;27;34202;-76
2022/01/18 06:12:44;;;;;;;20.35;9.95;;;5.70;58.80;;;;;;5102739;27;36676;-76
2022/01/18 06:15:10;;;;;;;21.20;10.23;;;5.70;58.70;;;;;;5110905;27;34420;-76
2022/01/18 06:17:38;;;;;;;19.75;10.82;;;5.70;58.70;;;;;;5109550;27;34331;-76
2022/01/18 06:20:05;;;;;;;20.73;11.60;;;5.70;58.70;;;;;;5109263;27;34381;-76
2022/01/18 06:22:31;;;;;;;20.98;11.02;;;5.70;58.60;;;;;;5110471;27;36486;-75
2022/01/18 06:24:57;;;;;;;20.27;10.27;;;5.70;58.60;;;;;;5126726;27;34210;-75
2022/01/18 06:27:25;;;;;;;22.80;11.13;;;5.70;58.60;;;;;;5109892;27;34172;-76
2022/01/18 06:29:52;;;;;;;22.48;11.68;;;5.80;58.50;;;;;;5126884;27;34500;-76
2022/01/18 06:32:18;;;;;;;21.25;11.40;;;5.80;58.50;;;;;;5126314;27;36907;-75
2022/01/18 06:34:45;;;;;;;22.15;11.25;;;5.80;58.60;;;;;;5144862;27;34156;-75
2022/01/18 06:37:11;;;;;;;21.02;10.57;;;5.80;58.50;;;;;;5127025;27;34176;-75
2022/01/18 06:39:37;;;;;;;19.25;11.20;;;5.80;59.20;;;;;;5093071;27;34557;-75
2022/01/18 06:42:04;;;;;;;19.20;10.35;;;5.80;58.60;;;;;;5126045;27;35613;-75
2022/01/18 06:44:30;;;;;;;17.98;9.85;;;5.80;58.60;;;;;;5109616;27;34260;-76
2022/01/18 06:46:57;;;;;;;25.90;11.43;;;5.80;58.60;;;;;;5126545;27;34247;-75
2022/01/18 06:49:23;;;;;;;20.63;11.40;;;5.80;58.50;;;;;;5127107;27;34559;-75
2022/01/18 06:51:50;;;;;;;24.42;10.93;;;5.80;58.40;;;;;;5144773;27;34172;-76
2022/01/18 06:54:17;;;;;;;19.50;10.65;;;5.80;58.40;;;;;;5144987;27;34255;-75
2022/01/18 06:56:48;;;;;;;20.70;10.75;;;5.80;58.40;;;;;;5160810;27;34103;-75
2022/01/18 06:59:15;;;;;;;21.63;11.35;;;5.80;58.40;;;;;;5127235;27;34473;-76
2022/01/18 07:01:41;;;;;;;18.52;10.27;;;5.80;58.40;;;;;;5109158;27;35923;-76
2022/01/18 07:04:07;;;;;;;17.52;9.23;;;5.80;58.50;;;;;;5144179;27;34160;-75
2022/01/18 07:06:34;;;;;;;17.40;10.00;;;5.80;58.50;;;;;;5126153;27;34277;-76
2022/01/18 07:09:01;;;;;;;20.02;10.32;;;5.80;58.50;;;;;;5125595;27;34280;-76
2022/01/18 07:11:27;;;;;;;20.73;10.30;;;5.80;58.50;;;;;;5125776;27;35535;-76
2022/01/18 07:13:53;;;;;;;16.45;9.57;;;5.80;58.50;;;;;;5126277;27;34259;-75
2022/01/18 07:16:20;;;;;;;17.73;10.65;;;5.80;58.50;;;;;;5143855;27;34251;-76
2022/01/18 07:18:46;;;;;;;18.38;9.65;;;5.80;58.50;;;;;;5126359;27;34484;-75
2022/01/18 07:21:13;;;;;;;23.50;10.68;;;5.80;58.50;;;;;;5160141;27;36475;-75
2022/01/18 07:23:39;;;;;;;19.98;10.52;;;5.80;59.20;;;;;;5125899;27;34104;-75
2022/01/18 07:26:05;;;;;;;22.25;10.43;;;5.80;58.50;;;;;;5125340;27;34076;-76
2022/01/18 07:28:31;;;;;;;16.83;9.88;;;5.80;58.40;;;;;;5144694;27;34316;-76
2022/01/18 07:30:57;;;;;;;16.98;9.57;;;5.80;58.50;;;;;;5125486;27;35853;-76
2022/01/18 07:33:23;;;;;;;20.80;10.82;;;5.80;58.50;;;;;;5144202;27;34308;-75
2022/01/18 07:35:50;;;;;;;24.15;11.55;;;5.80;58.50;;;;;;5125708;27;34309;-76
2022/01/18 07:38:18;;;;;;;18.77;9.27;;;5.80;58.60;;;;;;5126224;27;34544;-75
2022/01/18 07:40:46;;;;;;;19.08;10.07;;;5.80;58.60;;;;;;5126078;27;34310;-75
2022/01/18 07:43:16;;;;;;;14.45;8.93;;;5.80;58.50;;;;;;5126639;27;34253;-76
2022/01/18 07:45:44;;;;;;;19.85;10.40;;;5.80;58.50;;;;;;5110068;27;34229;-75
2022/01/18 07:48:11;;;;;;;20.48;10.10;;;5.80;58.50;;;;;;5144935;27;34055;-75
2022/01/18 07:50:38;;;;;;;18.67;10.15;;;5.80;58.50;;;;;;5126850;27;36714;-75
2022/01/18 07:53:05;;;;;;;16.00;9.23;;;5.80;58.50;;;;;;5126034;27;34302;-76
2022/01/18 07:55:31;;;;;;;19.55;9.68;;;5.80;58.60;;;;;;5109940;27;34182;-75
2022/01/18 07:57:59;;;;;;;16.95;9.82;;;5.80;58.60;;;;;;5126313;27;34494;-75
2022/01/18 08:00:25;;;;;;;18.00;9.60;;;5.80;58.60;;;;;;5125718;27;35678;-76
2022/01/18 08:02:51;;;;;;;19.67;10.20;;;5.80;58.70;;;;;;5109666;27;34126;-76
2022/01/18 08:05:17;;;;;;;15.18;9.63;;;5.80;58.70;;;;;;5109372;27;34266;-76
2022/01/18 08:07:43;;;;;;;17.50;9.52;;;5.80;58.70;;;;;;5108892;27;34210;-76
2022/01/18 08:10:12;;;;;;;16.35;10.30;;;5.90;58.80;;;;;;5146172;27;34480;-75
2022/01/18 08:12:38;;;;;;;19.23;10.90;;;5.90;58.70;;;;;;5130491;27;34183;-76
2022/01/18 08:15:13;;;;;;;24.80;12.15;;;5.90;58.70;;;;;;5129091;27;34292;-76
2022/01/18 08:17:43;;;;;;;21.13;10.63;;;6.00;58.60;;;;;;5098386;27;34131;-76
2022/01/18 08:20:13;;;;;;;20.17;10.57;;;6.00;58.60;;;;;;5111346;27;35940;-76
2022/01/18 08:22:41;;;;;;;21.27;9.95;;;6.00;58.60;;;;;;5128440;27;34174;-76
2022/01/18 08:25:08;;;;;;;22.67;11.65;;;6.00;58.60;;;;;;5128486;27;34221;-76
2022/01/18 08:27:34;;;;;;;21.08;11.75;;;6.10;58.80;;;;;;5129117;27;34139;-76
2022/01/18 08:30:01;;;;;;;18.73;10.40;;;6.00;58.70;;;;;;5128242;27;36315;-76
2022/01/18 08:32:27;;;;;;;17.35;10.55;;;6.10;58.70;;;;;;5129506;27;34373;-76
2022/01/18 08:34:53;;;;;;;21.35;10.25;;;6.20;58.70;;;;;;5128371;27;34512;-76
2022/01/18 08:37:19;;;;;;;16.30;10.32;;;6.20;58.60;;;;;;5129253;27;34450;-76
2022/01/18 08:39:45;;;;;;;18.80;10.05;;;6.30;58.70;;;;;;5128344;27;35615;-76
2022/01/18 08:42:11;;;;;;;21.65;11.73;;;6.30;58.60;;;;;;5112103;27;34294;-75
2022/01/18 08:44:41;;;;;;;22.73;11.85;;;6.30;58.60;;;;;;5147567;27;34275;-76
2022/01/18 08:47:07;;;;;;;26.80;12.57;;;6.30;58.60;;;;;;5111808;27;34087;-76
2022/01/18 08:49:33;;;;;;;23.70;12.32;;;6.30;58.70;;;;;;5128676;27;34636;-76
2022/01/18 08:51:59;;;;;;;21.20;10.82;;;6.40;58.60;;;;;;5128249;27;34159;-76
2022/01/18 08:54:25;;;;;;;22.48;11.73;;;6.40;58.70;;;;;;5111466;27;34137;-75
2022/01/18 08:56:51;;;;;;;22.88;11.23;;;6.40;58.50;;;;;;5111945;27;34348;-76
2022/01/18 08:59:17;;;;;;;22.98;11.13;;;6.50;58.60;;;;;;5128546;27;35638;-76
2022/01/18 09:01:43;;;;;;;21.40;11.40;;;6.50;58.50;;;;;;5128199;27;34186;-76
2022/01/18 09:04:09;;;;;;;27.33;11.40;;;6.60;58.60;;;;;;5128084;27;34177;-76
2022/01/18 09:06:37;;;;;;;17.48;11.15;;;6.60;58.60;;;;;;5128762;27;34415;-76
2022/01/18 09:09:05;;;;;;;24.75;12.43;;;6.60;58.50;;;;;;5127808;27;35981;-76
2022/01/18 09:11:31;;;;;;;22.85;11.35;;;6.70;58.50;;;;;;5128118;27;34168;-75
2022/01/18 09:13:57;;;;;;;23.15;11.32;;;6.80;58.50;;;;;;5128374;27;34263;-75
2022/01/18 09:16:24;;;;;;;21.30;11.23;;;6.80;58.50;;;;;;5128059;27;34214;-75
2022/01/18 09:18:51;;;;;;;20.23;11.23;;;6.80;58.30;;;;;;5162791;27;35832;-75
2022/01/18 09:21:18;;;;;;;22.77;12.23;;;6.80;58.30;;;;;;5146217;27;34109;-76
2022/01/18 09:23:45;;;;;;;20.90;12.40;;;6.90;58.30;;;;;;5146703;27;34174;-75
2022/01/18 09:26:13;;;;;;;20.05;11.55;;;6.90;58.20;;;;;;5109993;27;34493;-75
2022/01/18 09:28:40;;;;;;;27.77;11.77;;;7.00;58.20;;;;;;5127539;27;36366;-75
2022/01/18 09:31:06;;;;;;;21.13;11.63;;;7.00;58.20;;;;;;5111098;27;34247;-75
2022/01/18 09:33:32;;;;;;;22.48;12.20;;;7.00;58.30;;;;;;5128411;27;34096;-75
2022/01/18 09:35:58;;;;;;;24.55;12.27;;;7.10;58.30;;;;;;5145864;27;34082;-75
2022/01/18 09:38:24;;;;;;;23.17;12.25;;;7.20;58.20;;;;;;5127371;27;36564;-75
2022/01/18 09:40:50;;;;;;;24.58;12.63;;;7.20;58.10;;;;;;5110446;27;34125;-75
2022/01/18 09:43:17;;;;;;;27.08;12.63;;;7.20;58.10;;;;;;5162145;27;34185;-75
2022/01/18 09:45:45;;;;;;;21.02;11.70;;;7.20;58.00;;;;;;5146030;27;34166;-75
2022/01/18 09:48:12;;;;;;;23.23;13.55;;;7.20;57.90;;;;;;5110111;27;35526;-75
2022/01/18 09:50:41;;;;;;;24.73;12.20;;;7.30;58.10;;;;;;5111632;27;33999;-75
2022/01/18 09:53:09;;;;;;;19.55;11.23;;;7.30;58.10;;;;;;5111348;27;34082;-75
2022/01/18 09:55:36;;;;;;;19.45;10.93;;;7.30;58.10;;;;;;5111189;27;34480;-75
2022/01/18 09:58:06;;;;;;;29.38;13.27;;;7.40;58.00;;;;;;5127146;27;35777;-75
2022/01/18 10:00:34;;;;;;;25.45;12.75;;;7.40;58.00;;;;;;5110881;27;34394;-75
2022/01/18 10:03:00;;;;;;;21.40;12.18;;;7.50;58.00;;;;;;5126668;27;34290;-75
2022/01/18 10:05:30;;;;;;;22.10;11.40;;;7.50;58.00;;;;;;5145939;27;34205;-75
2022/01/18 10:08:05;;;;;;;22.58;11.98;;;7.60;58.00;;;;;;5110134;27;36834;-75
2022/01/18 10:10:38;;;;;;;20.27;10.95;;;7.60;57.90;;;;;;5094662;27;34293;-75
2022/01/18 10:13:05;;;;;;;19.95;11.63;;;7.70;57.90;;;;;;5145196;27;34184;-75
2022/01/18 10:15:31;;;;;;;23.42;12.00;;;7.70;57.70;;;;;;5145392;27;34123;-75
2022/01/18 10:18:07;;;;;;;19.55;9.90;;;7.70;57.60;;;;;;5127146;27;35592;-75
2022/01/18 10:20:51;;;;;;;18.25;10.55;;;7.80;57.60;;;;;;5128013;27;34217;-75
2022/01/18 10:23:23;;;;;;;21.77;10.23;;;7.80;57.40;;;;;;5127513;27;34275;-75
2022/01/18 10:25:50;;;;;;;18.58;10.52;;;7.90;57.50;;;;;;5127504;27;34111;-75
2022/01/18 10:28:32;;;;;;;17.70;9.77;;;8.00;57.50;;;;;;5109249;27;35934;-75
2022/01/18 10:31:04;;;;;;;17.67;10.50;;;8.00;57.20;;;;;;5109569;27;34234;-75
2022/01/18 10:33:36;;;;;;;19.13;10.00;;;8.00;57.30;;;;;;5144727;27;34271;-75
2022/01/18 10:36:13;;;;;;;16.52;9.98;;;8.10;57.50;;;;;;5126534;27;34510;-75
2022/01/18 10:38:42;;;;;;;19.60;9.65;;;8.10;57.30;;;;;;5126396;27;35552;-75
2022/01/18 10:41:28;;;;;;;17.00;9.20;;;8.20;57.40;;;;;;5126793;27;34434;-75
2022/01/18 10:44:04;;;;;;;14.93;9.27;;;8.30;57.00;;;;;;5145077;27;34267;-75
2022/01/18 10:46:38;;;;;;;17.25;9.18;;;8.30;57.10;;;;;;5127264;27;34271;-75
2022/01/18 10:49:06;;;;;;;13.85;8.20;;;8.30;57.10;;;;;;5144615;27;35026;-75
2022/01/18 10:51:35;;;;;;;17.23;8.98;;;8.40;57.10;;;;;;5110397;27;34269;-75
2022/01/18 10:54:06;;;;;;;18.35;9.48;;;8.40;57.10;;;;;;5126184;27;34364;-75
2022/01/18 10:56:47;;;;;;;16.63;10.38;;;8.50;57.10;;;;;;5109519;27;34292;-75
2022/01/18 10:59:23;;;;;;;16.42;8.85;;;8.60;57.00;;;;;;5160418;27;35663;-75
2022/01/18 11:02:12;;;;;;;14.35;9.25;;;8.60;56.90;;;;;;5108797;27;34093;-75
2022/01/18 11:04:39;;;;;;;16.35;8.30;;;8.60;56.60;;;;;;5109702;27;34227;-75
2022/01/18 11:07:06;;;;;;;14.38;7.93;;;8.60;56.80;;;;;;5125909;27;34130;-75
2022/01/18 11:09:33;;;;;;;14.80;8.18;;;8.60;56.60;;;;;;5126659;27;35522;-75
2022/01/18 11:12:00;;;;;;;13.50;7.07;;;8.70;56.70;;;;;;5125902;27;34123;-75
2022/01/18 11:14:26;;;;;;;11.70;6.85;;;8.70;56.70;;;;;;5126151;27;34250;-75
2022/01/18 11:16:56;;;;;;;13.10;7.45;;;8.70;56.70;;;;;;5126821;27;34402;-76
2022/01/18 11:19:31;;;;;;;15.50;7.47;;;8.80;56.60;;;;;;5125632;27;35781;-75
2022/01/18 11:22:02;;;;;;;12.05;7.03;;;8.80;56.40;;;;;;5126132;27;34203;-75
2022/01/18 11:24:29;;;;;;;14.55;7.53;;;8.90;56.50;;;;;;5126877;27;34324;-75
2022/01/18 11:26:57;;;;;;;13.50;7.47;;;9.00;56.40;;;;;;5125596;27;34463;-75
2022/01/18 11:29:25;;;;;;;10.52;7.20;;;9.10;56.40;;;;;;5126206;27;35570;-75
2022/01/18 11:31:54;;;;;;;12.02;7.13;;;9.20;56.40;;;;;;5125742;27;34256;-76
2022/01/18 11:34:49;;;;;;;13.07;7.43;;;9.30;56.40;;;;;;5109416;27;34179;-75
2022/01/18 11:37:28;;;;;;;15.55;7.50;;;9.30;55.30;;;;;;5113142;27;34420;-75
2022/01/18 11:39:59;;;;;;;13.55;7.82;;;9.30;55.80;;;;;;5124962;27;35879;-75
2022/01/18 11:42:39;;;;;;;15.10;8.23;;;9.30;56.00;;;;;;5160330;27;34368;-75
2022/01/18 11:45:29;;;;;;;12.05;7.47;;;9.40;55.70;;;;;;5128872;27;34338;-75
2022/01/18 11:48:18;;;;;;;13.50;7.63;;;9.40;55.00;;;;;;5115239;27;34440;-76
2022/01/18 11:51:05;;;;;;;12.52;6.63;;;9.40;54.80;;;;;;5066576;28;35586;-75
2022/01/18 11:53:42;;;;;;;11.65;7.45;;;9.40;55.30;;;;;;5067811;28;34233;-75
2022/01/18 11:56:15;;;;;;;11.60;6.45;;;9.40;55.80;;;;;;5050976;28;34226;-75
2022/01/18 11:58:43;;;;;;;11.55;6.72;;;9.40;55.80;;;;;;5034612;28;34281;-75
2022/01/18 12:01:10;;;;;;;13.68;6.75;;;9.40;55.80;;;;;;5066347;28;36530;-75
2022/01/18 12:03:48;;;;;;;11.57;5.93;;;9.40;55.90;;;;;;5066687;28;34223;-75
2022/01/18 12:06:15;;;;;;;13.23;6.53;;;9.50;55.50;;;;;;5067746;28;34196;-75
2022/01/18 12:08:44;;;;;;;14.77;6.88;;;9.50;56.00;;;;;;5049999;28;34409;-75
2022/01/18 12:11:36;;;;;;;12.00;5.45;;;9.60;55.90;;;;;;5083542;28;34751;-75
2022/01/18 12:14:04;;;;;;;8.20;5.13;;;9.60;54.10;;;;;;5070870;28;34419;-75
2022/01/18 12:16:31;;;;;;;10.30;5.72;;;9.60;55.40;;;;;;5067193;28;34436;-76
2022/01/18 12:19:04;;;;;;;11.85;6.07;;;9.60;55.50;;;;;;5050772;28;34150;-75
2022/01/18 12:21:33;;;;;;;10.20;5.15;;;9.70;55.70;;;;;;5112082;27;34140;-75
2022/01/18 12:24:16;;;;;;;11.57;5.32;;;9.70;55.40;;;;;;5147838;27;34069;-75
2022/01/18 12:26:47;;;;;;;10.00;5.40;;;9.80;54.40;;;;;;5129911;27;34207;-75
2022/01/18 12:29:23;;;;;;;10.27;4.90;;;9.80;55.40;;;;;;5148123;27;34509;-75
2022/01/18 12:32:04;;;;;;;8.13;4.70;;;9.90;55.50;;;;;;5112731;27;36835;-75
2022/01/18 12:34:38;;;;;;;8.65;4.60;;;9.90;55.20;;;;;;5164222;27;34133;-75
2022/01/18 12:37:31;;;;;;;9.38;4.25;;;9.90;55.00;;;;;;5128922;27;34285;-75
2022/01/18 12:40:05;;;;;;;10.25;4.28;;;9.90;52.10;;;;;;5098898;27;34572;-75
2022/01/18 12:45:43;;;;;;;7.43;4.10;;;9.90;53.30;;;;;;5131675;27;34151;-75
2022/01/18 12:48:13;;;;;;;6.22;4.00;;;9.80;54.60;;;;;;5118383;27;34445;-76
2022/01/18 12:50:44;;;;;;;6.07;4.07;;;9.90;54.80;;;;;;5108467;27;34213;-75
2022/01/18 12:53:25;;;;;;;6.20;3.67;;;9.90;54.70;;;;;;5107183;27;35811;-75
2022/01/18 12:55:55;;;;;;;7.60;3.95;;;9.90;54.20;;;;;;5106530;27;34085;-75
2022/01/18 12:58:26;;;;;;;8.98;3.75;;;9.90;54.60;;;;;;5107533;27;34328;-75
2022/01/18 13:00:56;;;;;;;6.43;3.50;;;9.90;54.50;;;;;;5091657;27;35000;-75
2022/01/18 13:03:29;;;;;;;6.95;3.45;;;9.80;54.30;;;;;;5107527;27;35630;-75
2022/01/18 13:05:57;;;;;;;8.70;3.90;;;9.90;54.30;;;;;;5124693;27;34192;-75
2022/01/18 13:08:29;;;;;;;7.57;3.95;;;9.80;54.00;;;;;;5091318;27;34204;-76
2022/01/18 13:10:56;;;;;;;13.05;4.18;;;9.80;54.20;;;;;;5125456;27;34268;-75
2022/01/18 13:13:29;;;;;;;8.60;3.60;;;9.80;54.20;;;;;;5090240;27;36037;-75
2022/01/18 13:16:07;;;;;;;5.00;3.58;;;9.80;53.70;;;;;;5106880;27;34207;-75
2022/01/18 13:24:36;;;;;;;7.80;4.00;;;9.70;54.30;;;;;;5124438;27;34689;-75
2022/01/18 13:26:57;;;;;;;7.57;3.42;;;9.70;54.30;;;;;;5095960;27;34044;-75
2022/01/18 13:29:26;;;;;;;6.93;3.47;;;9.60;53.70;;;;;;5107961;27;34172;-75
2022/01/18 13:32:04;;;;;;;5.05;2.90;;;9.60;54.00;;;;;;5125901;27;34439;-75
2022/01/18 13:34:33;;;;;;;4.70;2.88;;;9.60;53.30;;;;;;5106570;27;36264;-75
2022/01/18 13:37:03;;;;;;;5.07;2.97;;;9.60;53.70;;;;;;5090028;27;34261;-75
2022/01/18 13:39:32;;;;;;;5.53;3.10;;;9.60;53.70;;;;;;5090665;27;34330;-75
2022/01/18 13:42:00;;;;;;;3.25;2.38;;;9.60;53.30;;;;;;5107116;27;34317;-75
2022/01/18 13:44:29;;;;;;;5.63;2.28;;;9.50;53.10;;;;;;5124639;27;34488;-75
2022/01/18 13:47:09;;;;;;;3.72;2.55;;;9.50;53.00;;;;;;5124770;27;34126;-75
2022/01/18 13:49:36;;;;;;;4.85;2.42;;;9.50;53.10;;;;;;5074664;27;34147;-75
2022/01/18 13:52:06;;;;;;;4.07;1.80;;;9.40;52.90;;;;;;5125315;27;34244;-75
2022/01/18 13:54:49;;;;;;;4.43;2.00;;;9.40;52.80;;;;;;5107284;27;34314;-76
2022/01/18 13:57:17;;;;;;;2.35;1.90;;;9.40;51.20;;;;;;5106944;27;34131;-75
2022/01/18 13:59:44;;;;;;;2.10;1.60;;;9.40;52.80;;;;;;5089602;27;34116;-75
2022/01/18 14:02:13;;;;;;;3.65;1.70;;;9.40;52.10;;;;;;5124723;27;34138;-75
2022/01/18 14:04:40;;;;;;;2.67;1.50;;;9.30;52.60;;;;;;5089338;27;35645;-75
2022/01/18 14:07:06;;;;;;;3.00;1.65;;;9.30;52.50;;;;;;5123226;27;34381;-75
2022/01/18 14:09:32;;;;;;;2.72;1.70;;;9.30;52.80;;;;;;5089382;27;34221;-75